sensor_id;sensor_type;location;lat;lon;timestamp;P1;durP1;ratioP1;P2;durP2;ratioP2
13108;SDS011;6620;53.734;11.510;2023-03-01T00:00:52;6.30;;;3.08;;
13108;SDS011;6620;53.734;11.510;2023-03-01T00:03:17;7.53;;;3.20;;
13108;SDS011;6620;53.734;11.510;2023-03-01T00:05:46;6.70;;;3.38;;
13108;SDS011;6620;53.734;11.510;2023-03-01T00:08:11;5.45;;;3.60;;
13108;SDS011;6620;53.734;11.510;2023-03-01T00:10:36;5.23;;;2.80;;
13108;SDS011;6620;53.734;11.510;2023-03-01T00:13:01;5.90;;;3.37;;
13108;SDS011;6620;53.734;11.510;2023-03-01T00:15:27;5.75;;;3.53;;
13108;SDS011;6620;53.734;11.510;2023-03-01T00:17:52;7.50;;;2.93;;
13108;SDS011;6620;53.734;11.510;2023-03-01T00:20:17;5.60;;;3.15;;
13108;SDS011;6620;53.734;11.510;2023-03-01T00:22:43;4.20;;;3.00;;
13108;SDS011;6620;53.734;11.510;2023-03-01T00:25:08;7.13;;;3.57;;
13108;SDS011;6620;53.734;11.510;2023-03-01T00:27:33;4.82;;;3.10;;
13108;SDS011;6620;53.734;11.510;2023-03-01T00:29:58;5.53;;;3.07;;
13108;SDS011;6620;53.734;11.510;2023-03-01T00:32:23;5.82;;;3.35;;
13108;SDS011;6620;53.734;11.510;2023-03-01T00:34:49;5.28;;;3.25;;
13108;SDS011;6620;53.734;11.510;2023-03-01T00:37:20;5.82;;;3.42;;
13108;SDS011;6620;53.734;11.510;2023-03-01T00:39:46;4.00;;;2.47;;
13108;SDS011;6620;53.734;11.510;2023-03-01T00:42:11;5.72;;;3.00;;
13108;SDS011;6620;53.734;11.510;2023-03-01T00:44:36;5.57;;;2.93;;
13108;SDS011;6620;53.734;11.510;2023-03-01T00:47:01;5.70;;;2.92;;
13108;SDS011;6620;53.734;11.510;2023-03-01T00:49:27;5.07;;;3.13;;
13108;SDS011;6620;53.734;11.510;2023-03-01T00:51:52;4.53;;;2.58;;
13108;SDS011;6620;53.734;11.510;2023-03-01T00:54:18;6.68;;;3.60;;
13108;SDS011;6620;53.734;11.510;2023-03-01T00:56:43;6.70;;;2.80;;
13108;SDS011;6620;53.734;11.510;2023-03-01T00:59:08;5.70;;;2.90;;
13108;SDS011;6620;53.734;11.510;2023-03-01T01:01:33;6.70;;;3.40;;
13108;SDS011;6620;53.734;11.510;2023-03-01T01:04:00;4.93;;;2.87;;
13108;SDS011;6620;53.734;11.510;2023-03-01T01:06:27;6.13;;;2.70;;
13108;SDS011;6620;53.734;11.510;2023-03-01T01:08:53;6.97;;;2.97;;
13108;SDS011;6620;53.734;11.510;2023-03-01T01:11:18;5.25;;;2.85;;
13108;SDS011;6620;53.734;11.510;2023-03-01T01:13:44;5.78;;;2.92;;
13108;SDS011;6620;53.734;11.510;2023-03-01T01:16:10;5.55;;;2.60;;
13108;SDS011;6620;53.734;11.510;2023-03-01T01:18:35;5.60;;;2.47;;
13108;SDS011;6620;53.734;11.510;2023-03-01T01:21:08;4.82;;;2.45;;
13108;SDS011;6620;53.734;11.510;2023-03-01T01:23:33;7.57;;;2.67;;
13108;SDS011;6620;53.734;11.510;2023-03-01T01:26:03;8.65;;;2.75;;
13108;SDS011;6620;53.734;11.510;2023-03-01T01:28:28;3.45;;;2.47;;
13108;SDS011;6620;53.734;11.510;2023-03-01T01:30:53;3.97;;;2.50;;
13108;SDS011;6620;53.734;11.510;2023-03-01T01:33:19;5.90;;;2.67;;
13108;SDS011;6620;53.734;11.510;2023-03-01T01:35:44;3.43;;;2.90;;
13108;SDS011;6620;53.734;11.510;2023-03-01T01:38:10;5.32;;;2.80;;
13108;SDS011;6620;53.734;11.510;2023-03-01T01:40:35;4.10;;;3.03;;
13108;SDS011;6620;53.734;11.510;2023-03-01T01:43:09;3.90;;;2.80;;
13108;SDS011;6620;53.734;11.510;2023-03-01T01:45:37;3.88;;;2.53;;
13108;SDS011;6620;53.734;11.510;2023-03-01T01:48:04;4.65;;;2.83;;
13108;SDS011;6620;53.734;11.510;2023-03-01T01:50:30;4.25;;;2.72;;
13108;SDS011;6620;53.734;11.510;2023-03-01T01:53:02;5.88;;;3.28;;
13108;SDS011;6620;53.734;11.510;2023-03-01T01:55:28;5.50;;;3.40;;
13108;SDS011;6620;53.734;11.510;2023-03-01T01:57:54;6.38;;;3.53;;
13108;SDS011;6620;53.734;11.510;2023-03-01T02:00:25;8.40;;;3.45;;
13108;SDS011;6620;53.734;11.510;2023-03-01T02:02:52;6.30;;;3.28;;
13108;SDS011;6620;53.734;11.510;2023-03-01T02:07:50;5.40;;;2.88;;
13108;SDS011;6620;53.734;11.510;2023-03-01T02:10:16;4.63;;;2.85;;
13108;SDS011;6620;53.734;11.510;2023-03-01T02:12:42;3.75;;;2.70;;
13108;SDS011;6620;53.734;11.510;2023-03-01T02:15:07;5.60;;;3.17;;
13108;SDS011;6620;53.734;11.510;2023-03-01T02:17:32;4.13;;;2.78;;
13108;SDS011;6620;53.734;11.510;2023-03-01T02:22:24;5.37;;;3.23;;
13108;SDS011;6620;53.734;11.510;2023-03-01T02:24:55;5.65;;;3.08;;
13108;SDS011;6620;53.734;11.510;2023-03-01T02:27:22;5.90;;;2.53;;
13108;SDS011;6620;53.734;11.510;2023-03-01T02:29:50;6.30;;;3.20;;
13108;SDS011;6620;53.734;11.510;2023-03-01T02:32:16;3.63;;;2.47;;
13108;SDS011;6620;53.734;11.510;2023-03-01T02:34:51;7.22;;;3.20;;
13108;SDS011;6620;53.734;11.510;2023-03-01T02:37:16;4.70;;;3.28;;
13108;SDS011;6620;53.734;11.510;2023-03-01T02:39:48;3.90;;;2.92;;
13108;SDS011;6620;53.734;11.510;2023-03-01T02:42:16;5.40;;;3.25;;
13108;SDS011;6620;53.734;11.510;2023-03-01T02:44:43;6.50;;;3.10;;
13108;SDS011;6620;53.734;11.510;2023-03-01T02:47:08;7.07;;;2.75;;
13108;SDS011;6620;53.734;11.510;2023-03-01T02:49:35;4.57;;;2.90;;
13108;SDS011;6620;53.734;11.510;2023-03-01T02:57:12;5.10;;;2.75;;
13108;SDS011;6620;53.734;11.510;2023-03-01T02:59:37;4.68;;;2.83;;
13108;SDS011;6620;53.734;11.510;2023-03-01T03:02:17;4.90;;;2.70;;
13108;SDS011;6620;53.734;11.510;2023-03-01T03:04:45;4.38;;;2.88;;
13108;SDS011;6620;53.734;11.510;2023-03-01T03:07:10;4.10;;;2.85;;
13108;SDS011;6620;53.734;11.510;2023-03-01T03:09:35;7.27;;;4.57;;
13108;SDS011;6620;53.734;11.510;2023-03-01T03:12:01;3.13;;;2.40;;
13108;SDS011;6620;53.734;11.510;2023-03-01T03:14:26;6.60;;;3.27;;
13108;SDS011;6620;53.734;11.510;2023-03-01T03:16:51;7.43;;;3.17;;
13108;SDS011;6620;53.734;11.510;2023-03-01T03:19:17;3.80;;;3.00;;
13108;SDS011;6620;53.734;11.510;2023-03-01T03:21:42;5.15;;;3.15;;
13108;SDS011;6620;53.734;11.510;2023-03-01T03:24:08;5.57;;;2.78;;
13108;SDS011;6620;53.734;11.510;2023-03-01T03:26:33;4.47;;;3.00;;
13108;SDS011;6620;53.734;11.510;2023-03-01T03:28:58;6.82;;;3.58;;
13108;SDS011;6620;53.734;11.510;2023-03-01T03:31:24;5.63;;;2.72;;
13108;SDS011;6620;53.734;11.510;2023-03-01T03:33:49;3.22;;;2.42;;
13108;SDS011;6620;53.734;11.510;2023-03-01T03:36:15;5.17;;;2.90;;
13108;SDS011;6620;53.734;11.510;2023-03-01T03:38:42;8.43;;;3.10;;
13108;SDS011;6620;53.734;11.510;2023-03-01T03:41:07;4.50;;;2.83;;
13108;SDS011;6620;53.734;11.510;2023-03-01T03:43:33;4.57;;;3.20;;
13108;SDS011;6620;53.734;11.510;2023-03-01T03:45:59;4.28;;;2.65;;
13108;SDS011;6620;53.734;11.510;2023-03-01T03:48:25;5.13;;;3.17;;
13108;SDS011;6620;53.734;11.510;2023-03-01T03:50:52;5.95;;;3.05;;
13108;SDS011;6620;53.734;11.510;2023-03-01T03:53:19;4.95;;;3.17;;
13108;SDS011;6620;53.734;11.510;2023-03-01T03:55:44;5.18;;;3.20;;
13108;SDS011;6620;53.734;11.510;2023-03-01T03:58:10;6.85;;;3.53;;
13108;SDS011;6620;53.734;11.510;2023-03-01T04:00:36;3.72;;;2.67;;
13108;SDS011;6620;53.734;11.510;2023-03-01T04:03:01;5.55;;;2.90;;
13108;SDS011;6620;53.734;11.510;2023-03-01T04:05:27;5.18;;;3.00;;
13108;SDS011;6620;53.734;11.510;2023-03-01T04:07:52;5.40;;;3.13;;
13108;SDS011;6620;53.734;11.510;2023-03-01T04:10:42;3.95;;;3.03;;
13108;SDS011;6620;53.734;11.510;2023-03-01T04:13:09;4.63;;;3.05;;
13108;SDS011;6620;53.734;11.510;2023-03-01T04:15:35;4.95;;;3.05;;
13108;SDS011;6620;53.734;11.510;2023-03-01T04:18:01;5.70;;;2.92;;
13108;SDS011;6620;53.734;11.510;2023-03-01T04:20:27;5.20;;;3.40;;
13108;SDS011;6620;53.734;11.510;2023-03-01T04:25:49;4.72;;;3.20;;
13108;SDS011;6620;53.734;11.510;2023-03-01T04:28:20;4.07;;;2.60;;
13108;SDS011;6620;53.734;11.510;2023-03-01T04:30:46;5.53;;;3.47;;
13108;SDS011;6620;53.734;11.510;2023-03-01T04:33:11;7.50;;;3.00;;
13108;SDS011;6620;53.734;11.510;2023-03-01T04:35:36;6.70;;;3.95;;
13108;SDS011;6620;53.734;11.510;2023-03-01T04:38:03;6.55;;;3.03;;
13108;SDS011;6620;53.734;11.510;2023-03-01T04:40:28;4.95;;;2.85;;
13108;SDS011;6620;53.734;11.510;2023-03-01T04:42:53;3.67;;;2.67;;
13108;SDS011;6620;53.734;11.510;2023-03-01T04:45:19;5.43;;;3.00;;
13108;SDS011;6620;53.734;11.510;2023-03-01T04:47:45;5.00;;;2.50;;
13108;SDS011;6620;53.734;11.510;2023-03-01T04:50:11;4.82;;;3.00;;
13108;SDS011;6620;53.734;11.510;2023-03-01T04:52:37;4.28;;;3.17;;
13108;SDS011;6620;53.734;11.510;2023-03-01T04:55:02;5.40;;;3.30;;
13108;SDS011;6620;53.734;11.510;2023-03-01T04:57:28;7.57;;;2.97;;
13108;SDS011;6620;53.734;11.510;2023-03-01T04:59:53;4.03;;;2.70;;
13108;SDS011;6620;53.734;11.510;2023-03-01T05:02:18;5.37;;;3.03;;
13108;SDS011;6620;53.734;11.510;2023-03-01T05:04:44;5.03;;;3.47;;
13108;SDS011;6620;53.734;11.510;2023-03-01T05:07:09;6.57;;;3.13;;
13108;SDS011;6620;53.734;11.510;2023-03-01T05:09:34;5.07;;;3.17;;
13108;SDS011;6620;53.734;11.510;2023-03-01T05:11:59;4.80;;;3.17;;
13108;SDS011;6620;53.734;11.510;2023-03-01T05:14:24;6.18;;;3.92;;
13108;SDS011;6620;53.734;11.510;2023-03-01T05:16:50;6.40;;;4.03;;
13108;SDS011;6620;53.734;11.510;2023-03-01T05:19:15;7.33;;;3.60;;
13108;SDS011;6620;53.734;11.510;2023-03-01T05:21:41;7.97;;;3.67;;
13108;SDS011;6620;53.734;11.510;2023-03-01T05:24:26;10.63;;;6.10;;
13108;SDS011;6620;53.734;11.510;2023-03-01T05:26:52;8.55;;;5.97;;
13108;SDS011;6620;53.734;11.510;2023-03-01T05:29:18;6.38;;;4.63;;
13108;SDS011;6620;53.734;11.510;2023-03-01T05:31:44;8.95;;;4.72;;
13108;SDS011;6620;53.734;11.510;2023-03-01T05:34:09;8.03;;;5.40;;
13108;SDS011;6620;53.734;11.510;2023-03-01T05:36:36;5.93;;;4.30;;
13108;SDS011;6620;53.734;11.510;2023-03-01T05:39:01;6.07;;;4.55;;
13108;SDS011;6620;53.734;11.510;2023-03-01T05:41:26;7.30;;;5.03;;
13108;SDS011;6620;53.734;11.510;2023-03-01T05:43:51;6.90;;;4.40;;
13108;SDS011;6620;53.734;11.510;2023-03-01T05:46:16;7.27;;;4.27;;
13108;SDS011;6620;53.734;11.510;2023-03-01T05:48:42;9.35;;;4.18;;
13108;SDS011;6620;53.734;11.510;2023-03-01T05:51:07;6.05;;;4.57;;
13108;SDS011;6620;53.734;11.510;2023-03-01T05:53:32;6.45;;;4.50;;
13108;SDS011;6620;53.734;11.510;2023-03-01T05:55:58;9.07;;;4.40;;
13108;SDS011;6620;53.734;11.510;2023-03-01T05:58:23;6.33;;;4.20;;
13108;SDS011;6620;53.734;11.510;2023-03-01T06:00:49;7.40;;;4.68;;
13108;SDS011;6620;53.734;11.510;2023-03-01T06:03:15;7.28;;;4.10;;
13108;SDS011;6620;53.734;11.510;2023-03-01T06:05:40;7.63;;;3.63;;
13108;SDS011;6620;53.734;11.510;2023-03-01T06:08:06;7.40;;;3.80;;
13108;SDS011;6620;53.734;11.510;2023-03-01T06:10:31;5.70;;;3.57;;
13108;SDS011;6620;53.734;11.510;2023-03-01T06:12:56;6.10;;;3.87;;
13108;SDS011;6620;53.734;11.510;2023-03-01T06:15:21;5.88;;;4.03;;
13108;SDS011;6620;53.734;11.510;2023-03-01T06:17:47;7.22;;;3.72;;
13108;SDS011;6620;53.734;11.510;2023-03-01T06:20:13;5.55;;;3.40;;
13108;SDS011;6620;53.734;11.510;2023-03-01T06:22:39;5.18;;;3.38;;
13108;SDS011;6620;53.734;11.510;2023-03-01T06:25:05;7.00;;;3.50;;
13108;SDS011;6620;53.734;11.510;2023-03-01T06:27:30;6.15;;;3.53;;
13108;SDS011;6620;53.734;11.510;2023-03-01T06:29:56;6.73;;;3.80;;
13108;SDS011;6620;53.734;11.510;2023-03-01T06:32:21;5.88;;;3.67;;
13108;SDS011;6620;53.734;11.510;2023-03-01T06:34:46;6.25;;;3.90;;
13108;SDS011;6620;53.734;11.510;2023-03-01T06:37:11;4.97;;;3.53;;
13108;SDS011;6620;53.734;11.510;2023-03-01T06:39:36;4.53;;;3.80;;
13108;SDS011;6620;53.734;11.510;2023-03-01T06:42:02;9.43;;;4.25;;
13108;SDS011;6620;53.734;11.510;2023-03-01T06:44:28;5.15;;;3.63;;
13108;SDS011;6620;53.734;11.510;2023-03-01T06:46:53;5.00;;;3.50;;
13108;SDS011;6620;53.734;11.510;2023-03-01T06:49:18;5.15;;;3.60;;
13108;SDS011;6620;53.734;11.510;2023-03-01T06:51:44;5.95;;;4.10;;
13108;SDS011;6620;53.734;11.510;2023-03-01T06:54:09;7.47;;;3.70;;
13108;SDS011;6620;53.734;11.510;2023-03-01T06:56:35;4.93;;;3.33;;
13108;SDS011;6620;53.734;11.510;2023-03-01T06:59:00;7.63;;;4.45;;
13108;SDS011;6620;53.734;11.510;2023-03-01T07:01:25;8.00;;;3.17;;
13108;SDS011;6620;53.734;11.510;2023-03-01T07:03:51;6.53;;;3.30;;
13108;SDS011;6620;53.734;11.510;2023-03-01T07:06:16;6.97;;;3.63;;
13108;SDS011;6620;53.734;11.510;2023-03-01T07:08:42;6.70;;;4.07;;
13108;SDS011;6620;53.734;11.510;2023-03-01T07:11:07;5.53;;;3.60;;
13108;SDS011;6620;53.734;11.510;2023-03-01T07:13:33;4.95;;;3.83;;
13108;SDS011;6620;53.734;11.510;2023-03-01T07:15:58;5.78;;;3.70;;
13108;SDS011;6620;53.734;11.510;2023-03-01T07:18:23;6.60;;;3.80;;
13108;SDS011;6620;53.734;11.510;2023-03-01T07:20:48;6.32;;;3.70;;
13108;SDS011;6620;53.734;11.510;2023-03-01T07:23:13;4.63;;;3.42;;
13108;SDS011;6620;53.734;11.510;2023-03-01T07:25:39;6.13;;;3.70;;
13108;SDS011;6620;53.734;11.510;2023-03-01T07:28:04;5.40;;;3.87;;
13108;SDS011;6620;53.734;11.510;2023-03-01T07:30:29;6.10;;;3.42;;
13108;SDS011;6620;53.734;11.510;2023-03-01T07:32:55;7.45;;;3.95;;
13108;SDS011;6620;53.734;11.510;2023-03-01T07:35:21;6.13;;;3.90;;
13108;SDS011;6620;53.734;11.510;2023-03-01T07:37:46;6.07;;;3.92;;
13108;SDS011;6620;53.734;11.510;2023-03-01T07:40:11;6.30;;;4.20;;
13108;SDS011;6620;53.734;11.510;2023-03-01T07:42:37;6.57;;;3.92;;
13108;SDS011;6620;53.734;11.510;2023-03-01T07:45:03;6.28;;;4.38;;
13108;SDS011;6620;53.734;11.510;2023-03-01T07:47:28;7.05;;;4.03;;
13108;SDS011;6620;53.734;11.510;2023-03-01T07:49:53;8.00;;;4.17;;
13108;SDS011;6620;53.734;11.510;2023-03-01T07:52:19;7.30;;;4.10;;
13108;SDS011;6620;53.734;11.510;2023-03-01T07:54:44;6.22;;;4.30;;
13108;SDS011;6620;53.734;11.510;2023-03-01T07:57:09;6.43;;;4.50;;
13108;SDS011;6620;53.734;11.510;2023-03-01T07:59:34;7.53;;;4.30;;
13108;SDS011;6620;53.734;11.510;2023-03-01T08:02:00;5.47;;;3.90;;
13108;SDS011;6620;53.734;11.510;2023-03-01T08:04:25;4.50;;;3.83;;
13108;SDS011;6620;53.734;11.510;2023-03-01T08:06:51;7.28;;;4.38;;
13108;SDS011;6620;53.734;11.510;2023-03-01T08:09:16;4.43;;;3.70;;
13108;SDS011;6620;53.734;11.510;2023-03-01T08:11:42;5.97;;;3.80;;
13108;SDS011;6620;53.734;11.510;2023-03-01T08:14:07;6.70;;;4.63;;
13108;SDS011;6620;53.734;11.510;2023-03-01T08:16:32;5.10;;;4.18;;
13108;SDS011;6620;53.734;11.510;2023-03-01T08:19:03;6.55;;;4.47;;
13108;SDS011;6620;53.734;11.510;2023-03-01T08:21:28;7.05;;;5.05;;
13108;SDS011;6620;53.734;11.510;2023-03-01T08:23:53;5.88;;;4.50;;
13108;SDS011;6620;53.734;11.510;2023-03-01T08:26:19;6.40;;;4.47;;
13108;SDS011;6620;53.734;11.510;2023-03-01T08:28:47;6.35;;;4.20;;
13108;SDS011;6620;53.734;11.510;2023-03-01T08:31:13;6.50;;;4.13;;
13108;SDS011;6620;53.734;11.510;2023-03-01T08:33:38;7.03;;;4.28;;
13108;SDS011;6620;53.734;11.510;2023-03-01T08:36:04;6.53;;;4.70;;
13108;SDS011;6620;53.734;11.510;2023-03-01T08:38:31;10.13;;;5.20;;
13108;SDS011;6620;53.734;11.510;2023-03-01T08:40:58;7.60;;;5.03;;
13108;SDS011;6620;53.734;11.510;2023-03-01T08:43:24;10.02;;;5.07;;
13108;SDS011;6620;53.734;11.510;2023-03-01T08:45:49;8.57;;;5.45;;
13108;SDS011;6620;53.734;11.510;2023-03-01T08:48:14;11.05;;;5.65;;
13108;SDS011;6620;53.734;11.510;2023-03-01T08:50:40;8.73;;;5.80;;
13108;SDS011;6620;53.734;11.510;2023-03-01T08:53:06;9.93;;;5.72;;
13108;SDS011;6620;53.734;11.510;2023-03-01T08:55:31;14.47;;;5.90;;
13108;SDS011;6620;53.734;11.510;2023-03-01T08:57:56;9.83;;;5.63;;
13108;SDS011;6620;53.734;11.510;2023-03-01T09:00:23;10.27;;;6.43;;
13108;SDS011;6620;53.734;11.510;2023-03-01T09:02:49;12.35;;;7.53;;
13108;SDS011;6620;53.734;11.510;2023-03-01T09:05:15;13.00;;;7.30;;
13108;SDS011;6620;53.734;11.510;2023-03-01T09:07:40;15.30;;;7.35;;
13108;SDS011;6620;53.734;11.510;2023-03-01T09:10:05;13.27;;;7.40;;
13108;SDS011;6620;53.734;11.510;2023-03-01T09:12:31;13.10;;;7.57;;
13108;SDS011;6620;53.734;11.510;2023-03-01T09:14:56;14.43;;;8.47;;
13108;SDS011;6620;53.734;11.510;2023-03-01T09:17:21;12.37;;;8.07;;
13108;SDS011;6620;53.734;11.510;2023-03-01T09:19:46;13.83;;;8.70;;
13108;SDS011;6620;53.734;11.510;2023-03-01T09:22:11;18.77;;;10.38;;
13108;SDS011;6620;53.734;11.510;2023-03-01T09:24:36;15.90;;;9.43;;
13108;SDS011;6620;53.734;11.510;2023-03-01T09:27:02;14.23;;;8.77;;
13108;SDS011;6620;53.734;11.510;2023-03-01T09:29:27;15.25;;;9.55;;
13108;SDS011;6620;53.734;11.510;2023-03-01T09:31:53;16.25;;;9.65;;
13108;SDS011;6620;53.734;11.510;2023-03-01T09:34:20;16.58;;;9.20;;
13108;SDS011;6620;53.734;11.510;2023-03-01T09:36:48;12.90;;;8.60;;
13108;SDS011;6620;53.734;11.510;2023-03-01T09:39:13;14.43;;;8.32;;
13108;SDS011;6620;53.734;11.510;2023-03-01T09:41:42;15.63;;;9.30;;
13108;SDS011;6620;53.734;11.510;2023-03-01T09:46:45;13.98;;;8.50;;
13108;SDS011;6620;53.734;11.510;2023-03-01T09:49:30;15.13;;;10.50;;
13108;SDS011;6620;53.734;11.510;2023-03-01T09:52:15;14.57;;;8.98;;
13108;SDS011;6620;53.734;11.510;2023-03-01T09:54:44;21.73;;;10.80;;
13108;SDS011;6620;53.734;11.510;2023-03-01T09:57:20;16.85;;;10.00;;
13108;SDS011;6620;53.734;11.510;2023-03-01T09:59:54;16.67;;;9.50;;
13108;SDS011;6620;53.734;11.510;2023-03-01T10:02:26;21.97;;;14.27;;
13108;SDS011;6620;53.734;11.510;2023-03-01T10:04:57;15.88;;;9.25;;
13108;SDS011;6620;53.734;11.510;2023-03-01T10:09:55;18.83;;;11.18;;
13108;SDS011;6620;53.734;11.510;2023-03-01T10:12:22;21.23;;;12.23;;
13108;SDS011;6620;53.734;11.510;2023-03-01T10:19:53;29.67;;;15.30;;
13108;SDS011;6620;53.734;11.510;2023-03-01T10:22:20;27.20;;;15.63;;
13108;SDS011;6620;53.734;11.510;2023-03-01T10:24:48;25.30;;;15.85;;
13108;SDS011;6620;53.734;11.510;2023-03-01T10:29:44;22.43;;;13.23;;
13108;SDS011;6620;53.734;11.510;2023-03-01T10:32:11;25.33;;;14.02;;
13108;SDS011;6620;53.734;11.510;2023-03-01T10:34:36;22.83;;;13.23;;
13108;SDS011;6620;53.734;11.510;2023-03-01T10:39:36;19.58;;;12.60;;
13108;SDS011;6620;53.734;11.510;2023-03-01T10:42:03;21.95;;;12.98;;
13108;SDS011;6620;53.734;11.510;2023-03-01T10:44:35;25.15;;;13.15;;
13108;SDS011;6620;53.734;11.510;2023-03-01T10:47:01;17.10;;;11.60;;
13108;SDS011;6620;53.734;11.510;2023-03-01T10:49:26;19.95;;;12.25;;
13108;SDS011;6620;53.734;11.510;2023-03-01T10:51:52;19.33;;;11.90;;
13108;SDS011;6620;53.734;11.510;2023-03-01T10:56:47;22.27;;;13.68;;
13108;SDS011;6620;53.734;11.510;2023-03-01T10:59:32;22.45;;;13.32;;
13108;SDS011;6620;53.734;11.510;2023-03-01T11:02:02;21.67;;;12.82;;
13108;SDS011;6620;53.734;11.510;2023-03-01T11:04:28;18.60;;;11.73;;
13108;SDS011;6620;53.734;11.510;2023-03-01T11:07:00;19.80;;;12.80;;
13108;SDS011;6620;53.734;11.510;2023-03-01T11:09:25;20.30;;;12.50;;
13108;SDS011;6620;53.734;11.510;2023-03-01T11:11:55;19.15;;;12.38;;
13108;SDS011;6620;53.734;11.510;2023-03-01T11:14:29;17.27;;;11.10;;
13108;SDS011;6620;53.734;11.510;2023-03-01T11:17:02;20.73;;;12.27;;
13108;SDS011;6620;53.734;11.510;2023-03-01T11:19:28;20.75;;;12.35;;
13108;SDS011;6620;53.734;11.510;2023-03-01T11:22:01;18.83;;;12.07;;
13108;SDS011;6620;53.734;11.510;2023-03-01T11:24:49;17.80;;;12.25;;
13108;SDS011;6620;53.734;11.510;2023-03-01T11:27:19;16.38;;;10.60;;
13108;SDS011;6620;53.734;11.510;2023-03-01T11:32:43;24.48;;;11.15;;
13108;SDS011;6620;53.734;11.510;2023-03-01T11:35:12;18.23;;;11.35;;
13108;SDS011;6620;53.734;11.510;2023-03-01T11:45:47;13.43;;;8.40;;
13108;SDS011;6620;53.734;11.510;2023-03-01T11:49:05;21.77;;;9.98;;
13108;SDS011;6620;53.734;11.510;2023-03-01T11:51:05;19.98;;;11.20;;
13108;SDS011;6620;53.734;11.510;2023-03-01T12:09:17;14.43;;;8.80;;
13108;SDS011;6620;53.734;11.510;2023-03-01T12:12:03;13.38;;;8.40;;
13108;SDS011;6620;53.734;11.510;2023-03-01T12:30:28;12.95;;;8.38;;
13108;SDS011;6620;53.734;11.510;2023-03-01T12:37:56;13.43;;;7.97;;
13108;SDS011;6620;53.734;11.510;2023-03-01T12:50:47;12.90;;;7.53;;
13108;SDS011;6620;53.734;11.510;2023-03-01T12:53:25;11.32;;;7.03;;
13108;SDS011;6620;53.734;11.510;2023-03-01T12:55:52;9.82;;;6.82;;
13108;SDS011;6620;53.734;11.510;2023-03-01T12:58:27;13.02;;;6.40;;
13108;SDS011;6620;53.734;11.510;2023-03-01T13:01:15;10.05;;;6.80;;
13108;SDS011;6620;53.734;11.510;2023-03-01T13:09:01;12.20;;;7.68;;
13108;SDS011;6620;53.734;11.510;2023-03-01T13:11:28;11.75;;;7.63;;
13108;SDS011;6620;53.734;11.510;2023-03-01T13:14:33;14.68;;;8.60;;
13108;SDS011;6620;53.734;11.510;2023-03-01T13:16:40;11.90;;;7.85;;
13108;SDS011;6620;53.734;11.510;2023-03-01T13:21:33;12.75;;;8.02;;
13108;SDS011;6620;53.734;11.510;2023-03-01T13:23:59;14.15;;;9.07;;
13108;SDS011;6620;53.734;11.510;2023-03-01T13:26:24;12.68;;;9.02;;
13108;SDS011;6620;53.734;11.510;2023-03-01T13:28:53;14.83;;;8.73;;
13108;SDS011;6620;53.734;11.510;2023-03-01T13:33:48;14.05;;;8.52;;
13108;SDS011;6620;53.734;11.510;2023-03-01T13:41:51;14.77;;;9.18;;
13108;SDS011;6620;53.734;11.510;2023-03-01T13:46:46;15.50;;;9.52;;
13108;SDS011;6620;53.734;11.510;2023-03-01T13:49:13;17.63;;;11.07;;
13108;SDS011;6620;53.734;11.510;2023-03-01T13:51:39;22.17;;;14.82;;
13108;SDS011;6620;53.734;11.510;2023-03-01T13:54:04;20.15;;;13.95;;
13108;SDS011;6620;53.734;11.510;2023-03-01T13:56:35;25.40;;;15.80;;
13108;SDS011;6620;53.734;11.510;2023-03-01T13:59:05;23.35;;;16.08;;
13108;SDS011;6620;53.734;11.510;2023-03-01T14:01:33;25.08;;;16.42;;
13108;SDS011;6620;53.734;11.510;2023-03-01T14:03:58;25.23;;;16.58;;
13108;SDS011;6620;53.734;11.510;2023-03-01T14:06:27;25.67;;;17.35;;
13108;SDS011;6620;53.734;11.510;2023-03-01T14:09:01;25.98;;;17.60;;
13108;SDS011;6620;53.734;11.510;2023-03-01T14:13:58;23.10;;;15.30;;
13108;SDS011;6620;53.734;11.510;2023-03-01T14:17:12;18.95;;;10.18;;
13108;SDS011;6620;53.734;11.510;2023-03-01T14:19:19;25.80;;;16.20;;
13108;SDS011;6620;53.734;11.510;2023-03-01T14:21:46;24.58;;;16.13;;
13108;SDS011;6620;53.734;11.510;2023-03-01T14:24:16;26.35;;;17.02;;
13108;SDS011;6620;53.734;11.510;2023-03-01T14:26:42;23.70;;;13.18;;
13108;SDS011;6620;53.734;11.510;2023-03-01T14:29:22;28.02;;;15.55;;
13108;SDS011;6620;53.734;11.510;2023-03-01T14:31:48;29.50;;;17.48;;
13108;SDS011;6620;53.734;11.510;2023-03-01T14:34:20;29.43;;;17.87;;
13108;SDS011;6620;53.734;11.510;2023-03-01T14:36:45;30.52;;;18.73;;
13108;SDS011;6620;53.734;11.510;2023-03-01T14:39:22;31.33;;;18.70;;
13108;SDS011;6620;53.734;11.510;2023-03-01T14:41:48;27.92;;;19.13;;
13108;SDS011;6620;53.734;11.510;2023-03-01T14:44:15;34.00;;;20.35;;
13108;SDS011;6620;53.734;11.510;2023-03-01T14:46:43;36.08;;;21.73;;
13108;SDS011;6620;53.734;11.510;2023-03-01T14:51:38;31.48;;;19.30;;
13108;SDS011;6620;53.734;11.510;2023-03-01T14:54:05;29.63;;;19.77;;
13108;SDS011;6620;53.734;11.510;2023-03-01T14:56:45;31.50;;;21.35;;
13108;SDS011;6620;53.734;11.510;2023-03-01T14:59:11;35.20;;;19.33;;
13108;SDS011;6620;53.734;11.510;2023-03-01T15:01:36;34.15;;;20.90;;
13108;SDS011;6620;53.734;11.510;2023-03-01T15:04:01;30.98;;;19.90;;
13108;SDS011;6620;53.734;11.510;2023-03-01T15:06:27;36.47;;;21.38;;
13108;SDS011;6620;53.734;11.510;2023-03-01T15:08:52;35.58;;;20.50;;
13108;SDS011;6620;53.734;11.510;2023-03-01T15:11:20;32.13;;;19.77;;
13108;SDS011;6620;53.734;11.510;2023-03-01T15:13:47;31.38;;;18.55;;
13108;SDS011;6620;53.734;11.510;2023-03-01T15:16:13;33.70;;;20.67;;
13108;SDS011;6620;53.734;11.510;2023-03-01T15:19:15;35.25;;;20.15;;
13108;SDS011;6620;53.734;11.510;2023-03-01T15:21:36;31.00;;;18.52;;
13108;SDS011;6620;53.734;11.510;2023-03-01T15:24:04;34.40;;;18.17;;
13108;SDS011;6620;53.734;11.510;2023-03-01T15:26:31;32.65;;;20.20;;
13108;SDS011;6620;53.734;11.510;2023-03-01T15:28:58;31.80;;;20.10;;
13108;SDS011;6620;53.734;11.510;2023-03-01T15:31:24;31.10;;;19.35;;
13108;SDS011;6620;53.734;11.510;2023-03-01T15:33:50;29.17;;;19.10;;
13108;SDS011;6620;53.734;11.510;2023-03-01T15:39:00;34.60;;;19.88;;
13108;SDS011;6620;53.734;11.510;2023-03-01T15:41:30;32.95;;;20.15;;
13108;SDS011;6620;53.734;11.510;2023-03-01T15:43:56;34.38;;;20.35;;
13108;SDS011;6620;53.734;11.510;2023-03-01T15:46:26;31.75;;;18.45;;
13108;SDS011;6620;53.734;11.510;2023-03-01T15:48:53;32.70;;;18.70;;
13108;SDS011;6620;53.734;11.510;2023-03-01T15:51:22;33.50;;;20.52;;
13108;SDS011;6620;53.734;11.510;2023-03-01T15:53:49;33.47;;;18.30;;
13108;SDS011;6620;53.734;11.510;2023-03-01T15:56:15;34.20;;;19.75;;
13108;SDS011;6620;53.734;11.510;2023-03-01T15:58:40;34.57;;;20.80;;
13108;SDS011;6620;53.734;11.510;2023-03-01T16:01:09;35.58;;;19.48;;
13108;SDS011;6620;53.734;11.510;2023-03-01T16:03:37;34.50;;;19.23;;
13108;SDS011;6620;53.734;11.510;2023-03-01T16:06:02;34.87;;;19.80;;
13108;SDS011;6620;53.734;11.510;2023-03-01T16:08:28;30.88;;;18.80;;
13108;SDS011;6620;53.734;11.510;2023-03-01T16:10:53;33.90;;;20.38;;
13108;SDS011;6620;53.734;11.510;2023-03-01T16:13:19;35.00;;;19.83;;
13108;SDS011;6620;53.734;11.510;2023-03-01T16:15:44;37.73;;;21.30;;
13108;SDS011;6620;53.734;11.510;2023-03-01T16:18:10;31.85;;;18.65;;
13108;SDS011;6620;53.734;11.510;2023-03-01T16:20:36;31.67;;;18.48;;
13108;SDS011;6620;53.734;11.510;2023-03-01T16:23:03;32.38;;;16.65;;
13108;SDS011;6620;53.734;11.510;2023-03-01T16:25:29;35.05;;;19.77;;
13108;SDS011;6620;53.734;11.510;2023-03-01T16:27:54;36.03;;;18.83;;
13108;SDS011;6620;53.734;11.510;2023-03-01T16:30:21;35.35;;;19.27;;
13108;SDS011;6620;53.734;11.510;2023-03-01T16:32:46;35.83;;;21.00;;